Time;durP1;ratioP1;P1;durP2;ratioP2;P2;SDS_P1;SDS_P2;PMS_P1;PMS_P2;Temp;Humidity;BMP_temperature;BMP_pressure;BME280_temperature;BME280_humidity;BME280_pressure;Samples;Min_cycle;Max_cycle;Signal;HPM_P1;HPM_P2
2021/10/30 00:02:23;;;;;;;;;;;;;;;21.28;56.42;99634.56;7289691;19;151915;-51
2021/10/30 00:04:50;;;;;;;;;;;;;;;21.23;56.58;99638.41;7289580;19;152807;-52
2021/10/30 00:07:17;;;;;;;;;;;;;;;21.21;57.07;99646.34;7287010;19;153358;-51
2021/10/30 00:09:45;;;;;;;;;;;;;;;21.16;57.20;99640.13;7288426;19;152042;-51
2021/10/30 00:12:12;;;;;;;;;;;;;;;21.16;57.09;99634.53;7288323;19;153010;-51
2021/10/30 00:14:39;;;;;;;;;;;;;;;21.12;57.19;99633.53;7293649;19;152576;-51
2021/10/30 00:17:06;;;;;;;;;;;;;;;21.09;57.75;99640.66;7287380;19;152632;-51
2021/10/30 00:19:33;;;;;;;;;;;;;;;21.06;57.87;99632.91;7286667;19;153302;-51
2021/10/30 00:22:00;;;;;;;;;;;;;;;21.06;57.84;99640.50;7285959;19;151909;-51
2021/10/30 00:24:27;;;;;;;;;;;;;;;21.04;57.70;99648.44;7286641;19;153759;-51
2021/10/30 00:26:54;;;;;;;;;;;;;;;21.00;58.11;99634.28;7284392;19;152866;-51
2021/10/30 00:29:21;;;;;;;;;;;;;;;20.99;58.27;99607.38;7288613;19;151973;-51
2021/10/30 00:31:48;;;;;;;;;;;;;;;20.96;58.08;99607.22;7288543;19;153302;-52
2021/10/30 00:34:15;;;;;;;;;;;;;;;20.98;58.55;99605.75;7286452;19;153262;-52
2021/10/30 00:36:41;;;;;;;;;;;;;;;20.95;58.53;99600.78;7295583;19;151698;-51
2021/10/30 00:39:08;;;;;;;;;;;;;;;20.96;58.72;99601.63;7286851;19;153416;-51
2021/10/30 00:41:35;;;;;;;;;;;;;;;20.92;58.34;99584.66;7285560;19;151628;-51
2021/10/30 00:44:06;;;;;;;;;;;;;;;20.89;58.92;99593.75;7286927;19;152740;-52
2021/10/30 00:46:33;;;;;;;;;;;;;;;20.88;58.82;99592.13;7285123;19;153479;-51
2021/10/30 00:49:00;;;;;;;;;;;;;;;20.87;58.91;99596.09;7286656;19;152638;-52
2021/10/30 00:51:28;;;;;;;;;;;;;;;20.87;59.08;99601.69;7285752;19;153174;-51
2021/10/30 00:53:56;;;;;;;;;;;;;;;20.84;58.81;99589.19;7287264;19;153662;-52
2021/10/30 00:56:22;;;;;;;;;;;;;;;20.82;59.06;99591.50;7287237;19;151829;-51
2021/10/30 00:58:50;;;;;;;;;;;;;;;20.82;58.82;99591.50;7292868;19;151885;-52
2021/10/30 01:01:17;;;;;;;;;;;;;;;20.78;59.41;99589.72;7283936;19;152446;-51
2021/10/30 01:03:44;;;;;;;;;;;;;;;20.79;58.93;99586.59;7287364;19;152445;-52
2021/10/30 01:06:11;;;;;;;;;;;;;;;20.78;58.96;99584.94;7284182;19;152463;-52
2021/10/30 01:08:38;;;;;;;;;;;;;;;20.75;59.10;99591.25;7287730;19;152553;-52
2021/10/30 01:11:05;;;;;;;;;;;;;;;20.74;59.15;99583.97;7286657;19;153876;-51
2021/10/30 01:13:32;;;;;;;;;;;;;;;20.73;59.30;99587.94;7285449;19;152703;-51
2021/10/30 01:15:59;;;;;;;;;;;;;;;20.71;59.60;99586.66;7287328;19;151636;-51
2021/10/30 01:18:26;;;;;;;;;;;;;;;20.72;59.50;99582.66;7284584;19;153356;-52
2021/10/30 01:20:53;;;;;;;;;;;;;;;20.68;59.73;99574.13;7293219;19;154151;-52
2021/10/30 01:23:20;;;;;;;;;;;;;;;20.67;59.63;99568.88;7286130;19;153079;-49
2021/10/30 01:25:49;;;;;;;;;;;;;;;20.66;59.99;99550.38;7280454;19;153972;-49
2021/10/30 01:28:16;;;;;;;;;;;;;;;20.64;59.81;99533.03;7285069;19;152037;-49
2021/10/30 01:30:43;;;;;;;;;;;;;;;20.63;59.53;99535.03;7286011;19;152814;-49
2021/10/30 01:33:09;;;;;;;;;;;;;;;20.62;59.68;99525.00;7285717;19;153684;-49
2021/10/30 01:35:38;;;;;;;;;;;;;;;20.61;59.75;99523.34;7286342;19;151865;-50
2021/10/30 01:38:05;;;;;;;;;;;;;;;20.59;59.72;99511.63;7285119;19;153327;-49
2021/10/30 01:40:36;;;;;;;;;;;;;;;20.55;59.71;99499.44;7281209;19;153299;-49
2021/10/30 01:43:03;;;;;;;;;;;;;;;20.55;60.23;99507.03;7292298;19;151873;-49
2021/10/30 01:45:30;;;;;;;;;;;;;;;20.53;60.03;99504.59;7282352;19;154211;-49
2021/10/30 01:47:58;;;;;;;;;;;;;;;20.56;60.28;99505.88;7284170;19;151698;-48
2021/10/30 01:50:25;;;;;;;;;;;;;;;20.53;60.27;99509.38;7285025;19;153174;-50
2021/10/30 01:52:53;;;;;;;;;;;;;;;20.54;60.09;99516.63;7284466;19;153159;-49
2021/10/30 01:55:21;;;;;;;;;;;;;;;20.53;60.41;99521.44;7285162;19;151896;-49
2021/10/30 01:57:48;;;;;;;;;;;;;;;20.51;60.39;99512.53;7284658;19;153066;-49
2021/10/30 02:00:15;;;;;;;;;;;;;;;20.52;60.24;99502.13;7280050;19;152677;-49
2021/10/30 02:02:42;;;;;;;;;;;;;;;20.50;60.58;99496.84;7293576;19;151915;-49
2021/10/30 02:05:10;;;;;;;;;;;;;;;20.49;60.38;99489.59;7285480;19;153912;-50
2021/10/30 02:07:37;;;;;;;;;;;;;;;20.52;60.39;99490.91;7285795;19;152275;-50
2021/10/30 02:10:05;;;;;;;;;;;;;;;20.49;60.72;99483.97;7280175;19;152306;-50
2021/10/30 02:12:32;;;;;;;;;;;;;;;20.50;60.38;99480.00;7281655;19;154949;-51
2021/10/30 02:14:59;;;;;;;;;;;;;;;20.47;60.43;99480.72;7283885;19;151519;-51
2021/10/30 02:17:26;;;;;;;;;;;;;;;20.48;60.89;99470.31;7282535;19;153042;-51
2021/10/30 02:19:53;;;;;;;;;;;;;;;20.44;61.19;99458.16;7280029;19;155118;-50
2021/10/30 02:22:19;;;;;;;;;;;;;;;20.45;61.13;99454.16;7283066;19;152302;-50
2021/10/30 02:24:46;;;;;;;;;;;;;;;20.44;60.97;99456.16;7291261;19;152831;-50
2021/10/30 02:27:13;;;;;;;;;;;;;;;20.42;61.27;99450.88;7284537;19;151794;-50
2021/10/30 02:29:40;;;;;;;;;;;;;;;20.41;61.54;99432.41;7284201;19;153545;-50
2021/10/30 02:32:07;;;;;;;;;;;;;;;20.42;61.59;99424.81;7283289;19;153790;-50
2021/10/30 02:34:34;;;;;;;;;;;;;;;20.42;61.74;99436.84;7283531;19;151734;-50
2021/10/30 02:37:01;;;;;;;;;;;;;;;20.41;62.09;99434.38;7283627;19;152792;-50
2021/10/30 02:39:28;;;;;;;;;;;;;;;20.41;61.67;99426.78;7280521;19;153267;-51
2021/10/30 02:41:55;;;;;;;;;;;;;;;20.41;62.05;99411.94;7284367;19;151968;-50
2021/10/30 02:44:21;;;;;;;;;;;;;;;20.38;61.92;99409.84;7283448;19;152663;-50
2021/10/30 02:46:48;;;;;;;;;;;;;;;20.39;62.15;99391.84;7290541;19;153628;-51
2021/10/30 02:49:15;;;;;;;;;;;;;;;20.38;61.80;99385.41;7284499;19;154139;-49
2021/10/30 02:51:42;;;;;;;;;;;;;;;20.37;62.35;99395.00;7283099;19;153715;-50
2021/10/30 02:54:09;;;;;;;;;;;;;;;20.37;62.34;99389.38;7282144;19;152247;-50
2021/10/30 02:56:36;;;;;;;;;;;;;;;20.38;61.86;99401.44;7283216;19;153313;-50
2021/10/30 02:59:02;;;;;;;;;;;;;;;20.36;62.41;99381.31;7281968;19;153414;-50
2021/10/30 03:01:29;;;;;;;;;;;;;;;20.34;62.13;99372.44;7280976;19;152118;-50
2021/10/30 03:03:56;;;;;;;;;;;;;;;20.34;62.16;99364.84;7278444;19;153127;-50
2021/10/30 03:06:23;;;;;;;;;;;;;;;20.34;62.01;99361.22;7282318;19;152642;-50
2021/10/30 03:08:50;;;;;;;;;;;;;;;20.34;62.28;99355.59;7289826;19;152078;-49
2021/10/30 03:11:17;;;;;;;;;;;;;;;20.32;62.14;99355.13;7279323;19;154152;-50
2021/10/30 03:13:45;;;;;;;;;;;;;;;20.29;62.59;99338.97;7282765;19;151904;-50
2021/10/30 03:16:11;;;;;;;;;;;;;;;20.29;62.64;99339.78;7281865;19;153178;-50
2021/10/30 03:18:38;;;;;;;;;;;;;;;20.28;62.49;99326.09;7279738;19;153334;-50
2021/10/30 03:21:05;;;;;;;;;;;;;;;20.27;62.45;99324.44;7280582;19;153240;-50
2021/10/30 03:23:32;;;;;;;;;;;;;;;20.28;62.14;99321.31;7283084;19;153519;-50
2021/10/30 03:25:59;;;;;;;;;;;;;;;20.24;62.87;99317.56;7282859;19;153602;-50
2021/10/30 03:28:26;;;;;;;;;;;;;;;20.26;62.71;99320.03;7281269;19;151896;-50
2021/10/30 03:30:53;;;;;;;;;;;;;;;20.24;62.80;99314.75;7289568;19;153235;-50
2021/10/30 03:33:20;;;;;;;;;;;;;;;20.23;62.85;99309.47;7281459;19;151969;-50
2021/10/30 03:35:47;;;;;;;;;;;;;;;20.23;62.55;99304.69;7283738;19;152797;-50
2021/10/30 03:38:14;;;;;;;;;;;;;;;20.22;63.18;99303.03;7279608;19;154031;-50
2021/10/30 03:40:41;;;;;;;;;;;;;;;20.21;63.00;99298.63;7279575;19;151962;-51
2021/10/30 03:43:07;;;;;;;;;;;;;;;20.19;63.10;99292.53;7282890;19;152858;-50
2021/10/30 03:45:34;;;;;;;;;;;;;;;20.18;63.38;99290.06;7282018;19;153337;-50
2021/10/30 03:48:03;;;;;;;;;;;;;;;20.15;63.23;99280.38;7284354;19;153028;-50
2021/10/30 03:50:30;;;;;;;;;;;;;;;20.18;63.15;99278.84;7287539;19;153384;-50
2021/10/30 03:52:57;;;;;;;;;;;;;;;20.18;63.40;99276.03;7295892;19;153764;-51
2021/10/30 03:55:23;;;;;;;;;;;;;;;20.15;63.81;99277.56;7287751;19;153414;-50
2021/10/30 03:57:51;;;;;;;;;;;;;;;20.16;63.34;99279.22;7287391;19;154648;-50
2021/10/30 04:00:18;;;;;;;;;;;;;;;20.15;63.97;99276.75;7287712;19;152228;-50
2021/10/30 04:02:45;;;;;;;;;;;;;;;20.15;63.56;99271.13;7286163;19;153340;-50
2021/10/30 04:05:12;;;;;;;;;;;;;;;20.14;63.67;99275.09;7285797;19;154004;-50
2021/10/30 04:07:39;;;;;;;;;;;;;;;20.15;63.87;99276.75;7286895;19;152076;-50
2021/10/30 04:10:06;;;;;;;;;;;;;;;20.13;63.78;99277.09;7286533;19;153500;-50
2021/10/30 04:12:33;;;;;;;;;;;;;;;20.14;63.84;99275.09;7295703;19;153408;-51
2021/10/30 04:15:00;;;;;;;;;;;;;;;20.13;63.76;99270.66;7287891;19;152850;-50
2021/10/30 04:17:27;;;;;;;;;;;;;;;20.11;63.52;99264.59;7287492;19;153783;-50
2021/10/30 04:19:53;;;;;;;;;;;;;;;20.11;63.48;99265.41;7288549;19;151955;-50
2021/10/30 04:22:20;;;;;;;;;;;;;;;20.11;63.61;99259.81;7288002;19;152850;-50
2021/10/30 04:24:47;;;;;;;;;;;;;;;20.10;63.58;99262.94;7286639;19;154161;-51
2021/10/30 04:27:14;;;;;;;;;;;;;;;20.09;63.90;99262.13;7286577;19;151863;-51
2021/10/30 04:29:41;;;;;;;;;;;;;;;20.09;63.53;99250.09;7285713;19;152647;-50
2021/10/30 04:32:10;;;;;;;;;;;;;;;20.06;63.90;99248.81;7286268;19;153402;-50
2021/10/30 04:34:43;;;;;;;;;;;;;;;20.07;63.66;99244.03;7296620;19;152171;-51
2021/10/30 04:39:42;;;;;;;;;;;;;;;20.07;63.95;99246.81;7288764;19;151718;-50
2021/10/30 04:42:13;;;;;;;;;;;;;;;20.04;64.04;99241.88;7285999;19;151588;-50
2021/10/30 04:44:50;;;;;;;;;;;;;;;20.03;63.79;99237.47;7285014;19;153783;-50
2021/10/30 04:47:29;;;;;;;;;;;;;;;20.04;63.69;99225.91;7285711;19;152151;-50
2021/10/30 04:49:59;;;;;;;;;;;;;;;20.01;64.02;99208.94;7287790;19;152073;-50
2021/10/30 04:52:30;;;;;;;;;;;;;;;20.01;64.11;99217.38;7285062;19;152743;-50
2021/10/30 04:55:02;;;;;;;;;;;;;;;19.98;63.88;99211.31;7286916;19;153270;-50
2021/10/30 04:57:29;;;;;;;;;;;;;;;20.01;64.33;99206.16;7294190;19;153394;-50
2021/10/30 04:59:57;;;;;;;;;;;;;;;20.01;64.04;99203.34;7284488;19;152027;-50
2021/10/30 05:02:27;;;;;;;;;;;;;;;20.00;63.95;99194.13;7287079;19;153418;-50
2021/10/30 05:05:11;;;;;;;;;;;;;;;19.96;64.53;99196.81;7285526;19;153339;-50
2021/10/30 05:07:42;;;;;;;;;;;;;;;19.95;64.32;99192.34;7286783;19;151890;-50
2021/10/30 05:10:10;;;;;;;;;;;;;;;19.96;64.25;99196.81;7287680;19;152486;-50
2021/10/30 05:12:54;;;;;;;;;;;;;;;19.94;64.70;99196.31;7286636;19;152835;-50
2021/10/30 05:15:27;;;;;;;;;;;;;;;19.93;64.31;99183.50;7287438;19;151793;-50
2021/10/30 05:17:58;;;;;;;;;;;;;;;19.92;64.60;99181.03;7285293;19;153179;-50
2021/10/30 05:20:28;;;;;;;;;;;;;;;19.93;64.59;99180.69;7292260;19;154089;-49
2021/10/30 05:22:56;;;;;;;;;;;;;;;19.91;64.78;99163.38;7285262;19;153130;-50
2021/10/30 05:25:28;;;;;;;;;;;;;;;19.92;64.78;99169.81;7286409;19;152790;-51
2021/10/30 05:27:56;;;;;;;;;;;;;;;19.94;64.71;99173.88;7284092;19;152129;-50
2021/10/30 05:30:25;;;;;;;;;;;;;;;19.94;64.39;99167.50;7286593;19;153495;-50
2021/10/30 05:32:53;;;;;;;;;;;;;;;19.92;64.72;99176.25;7282818;19;152533;-50
2021/10/30 05:35:20;;;;;;;;;;;;;;;19.91;64.57;99180.19;7286565;19;152095;-50
2021/10/30 05:37:52;;;;;;;;;;;;;;;19.90;64.46;99175.75;7283952;19;153301;-51
2021/10/30 05:40:28;;;;;;;;;;;;;;;19.89;64.41;99164.91;7284698;19;154721;-51
2021/10/30 05:43:02;;;;;;;;;;;;;;;19.89;64.73;99153.72;7293361;19;151678;-51
2021/10/30 05:45:39;;;;;;;;;;;;;;;19.90;64.38;99138.50;7284980;19;152516;-50
2021/10/30 05:48:08;;;;;;;;;;;;;;;19.90;64.68;99144.09;7286101;19;151652;-50
2021/10/30 05:50:40;;;;;;;;;;;;;;;19.90;64.71;99130.09;7283616;19;152716;-50
2021/10/30 05:53:09;;;;;;;;;;;;;;;19.87;64.70;99125.19;7285027;19;153807;-50
2021/10/30 05:55:46;;;;;;;;;;;;;;;19.87;64.53;99112.00;7284455;19;152289;-49
2021/10/30 05:58:13;;;;;;;;;;;;;;;19.88;64.18;99113.66;7285067;19;153383;-50
2021/10/30 06:00:47;;;;;;;;;;;;;;;19.89;64.06;99109.69;7280279;19;153332;-50
2021/10/30 06:03:16;;;;;;;;;;;;;;;19.88;64.18;99112.81;7285671;19;151949;-50
2021/10/30 06:05:43;;;;;;;;;;;;;;;19.87;64.18;99106.41;7292084;19;153976;-50
2021/10/30 06:08:11;;;;;;;;;;;;;;;19.87;64.32;99105.56;7285366;19;152108;-50
2021/10/30 06:10:41;;;;;;;;;;;;;;;19.87;64.45;99099.97;7284348;19;153282;-49
2021/10/30 06:13:09;;;;;;;;;;;;;;;19.85;64.61;99096.72;7284477;19;153167;-50
2021/10/30 06:15:43;;;;;;;;;;;;;;;19.84;64.16;99104.31;7285757;19;151819;-51
2021/10/30 06:18:18;;;;;;;;;;;;;;;19.83;64.50;99091.44;7284983;19;152286;-51
2021/10/30 06:21:13;;;;;;;;;;;;;;;19.82;64.61;99083.38;7280775;19;153001;-50
2021/10/30 06:23:58;;;;;;;;;;;;;;;19.84;64.44;99087.50;7281822;19;151748;-50
2021/10/30 06:26:26;;;;;;;;;;;;;;;19.81;64.64;99088.16;7290330;19;152888;-50
2021/10/30 06:28:54;;;;;;;;;;;;;;;19.82;64.15;99080.56;7285813;19;152158;-50
2021/10/30 06:31:21;;;;;;;;;;;;;;;19.84;64.53;99083.88;7283537;19;153052;-50
2021/10/30 06:33:49;;;;;;;;;;;;;;;19.83;64.23;99079.41;7284418;19;153357;-51
2021/10/30 06:36:15;;;;;;;;;;;;;;;19.82;64.48;99075.78;7282969;19;152296;-50
2021/10/30 06:38:42;;;;;;;;;;;;;;;19.80;64.45;99069.75;7282642;19;152855;-50
2021/10/30 06:41:12;;;;;;;;;;;;;;;19.81;64.54;99073.31;7280331;19;153830;-50
2021/10/30 06:43:58;;;;;;;;;;;;;;;19.80;64.69;99066.94;7284173;19;151939;-50
2021/10/30 06:46:25;;;;;;;;;;;;;;;19.78;64.73;99065.63;7283790;19;151890;-50
2021/10/30 06:48:55;;;;;;;;;;;;;;;19.79;64.67;99068.09;7290850;19;154025;-50
2021/10/30 06:51:23;;;;;;;;;;;;;;;19.79;64.51;99054.09;7283403;19;153258;-50
2021/10/30 06:53:50;;;;;;;;;;;;;;;19.78;64.70;99055.25;7283422;19;154041;-50
2021/10/30 06:56:17;;;;;;;;;;;;;;;19.79;64.36;99054.09;7282918;19;151994;-50
2021/10/30 06:58:45;;;;;;;;;;;;;;;19.79;64.66;99048.47;7284262;19;153172;-50
2021/10/30 07:01:12;;;;;;;;;;;;;;;19.78;64.40;99055.25;7280405;19;153946;-51
2021/10/30 07:03:40;;;;;;;;;;;;;;;19.80;64.32;99052.09;7284248;19;151953;-50
2021/10/30 07:06:07;;;;;;;;;;;;;;;19.78;64.49;99044.03;7284845;19;153056;-50
2021/10/30 07:08:34;;;;;;;;;;;;;;;19.78;64.50;99049.63;7283676;19;153853;-51
2021/10/30 07:11:01;;;;;;;;;;;;;;;19.76;64.93;99045.56;7290467;19;153194;-50
2021/10/30 07:13:30;;;;;;;;;;;;;;;19.75;64.77;99044.75;7281082;19;153263;-51
2021/10/30 07:15:57;;;;;;;;;;;;;;;19.83;65.23;99040.19;7282370;19;152029;-50
2021/10/30 07:18:24;;;;;;;;;;;;;;;19.89;65.33;99030.38;7282729;19;153247;-50
2021/10/30 07:20:52;;;;;;;;;;;;;;;19.92;65.53;99038.06;7279331;19;153959;-51
2021/10/30 07:23:18;;;;;;;;;;;;;;;19.94;65.18;99036.53;7283488;19;152181;-50
2021/10/30 07:25:46;;;;;;;;;;;;;;;20.00;65.11;99042.75;7287986;19;153124;-51
2021/10/30 07:28:12;;;;;;;;;;;;;;;20.02;65.12;99046.03;7289447;19;153858;-51
2021/10/30 07:30:39;;;;;;;;;;;;;;;20.05;65.52;99041.69;7289256;19;152605;-50
2021/10/30 07:33:06;;;;;;;;;;;;;;;20.07;65.45;99056.19;7294543;19;152572;-50
2021/10/30 07:35:33;;;;;;;;;;;;;;;20.09;65.43;99060.25;7286871;19;151916;-50
2021/10/30 07:38:00;;;;;;;;;;;;;;;20.11;65.12;99063.53;7289695;19;152632;-50
2021/10/30 07:40:29;;;;;;;;;;;;;;;20.12;65.32;99073.59;7287764;19;153471;-51
2021/10/30 07:42:56;;;;;;;;;;;;;;;20.13;65.29;99080.00;7287730;19;151911;-50
2021/10/30 07:45:23;;;;;;;;;;;;;;;20.15;65.44;99084.09;7288007;19;152589;-49
2021/10/30 07:47:50;;;;;;;;;;;;;;;20.16;65.16;99085.75;7287126;19;153797;-50
2021/10/30 07:50:17;;;;;;;;;;;;;;;20.16;64.92;99088.53;7288893;19;151825;-50
2021/10/30 07:52:44;;;;;;;;;;;;;;;20.16;65.19;99066.09;7285861;19;153283;-50
2021/10/30 07:55:11;;;;;;;;;;;;;;;20.19;65.10;99058.97;7295537;19;153120;-50
2021/10/30 07:57:38;;;;;;;;;;;;;;;20.18;64.81;99058.16;7288961;19;154132;-50
2021/10/30 08:00:06;;;;;;;;;;;;;;;20.18;64.58;99054.53;7287087;19;153211;-50
2021/10/30 08:02:33;;;;;;;;;;;;;;;20.20;64.88;99057.81;7287275;19;152527;-50
2021/10/30 08:05:00;;;;;;;;;;;;;;;20.20;64.85;99044.59;7287867;19;153193;-50
2021/10/30 08:07:27;;;;;;;;;;;;;;;20.20;64.46;99038.19;7286950;19;154007;-49
2021/10/30 08:09:54;;;;;;;;;;;;;;;20.21;64.61;99035.03;7289186;19;151682;-50
2021/10/30 08:12:21;;;;;;;;;;;;;;;20.21;64.90;99056.66;7288656;19;152617;-50
2021/10/30 08:14:47;;;;;;;;;;;;;;;20.21;64.75;99067.84;7287969;19;153675;-50
2021/10/30 08:17:14;;;;;;;;;;;;;;;20.21;64.95;99060.28;7296691;19;151941;-51
2021/10/30 08:19:41;;;;;;;;;;;;;;;20.22;64.66;99067.47;7287385;19;153273;-50
2021/10/30 08:22:08;;;;;;;;;;;;;;;20.22;64.46;99070.28;7287410;19;152189;-50
2021/10/30 08:24:35;;;;;;;;;;;;;;;20.20;64.77;99074.63;7287617;19;152636;-50
2021/10/30 08:27:02;;;;;;;;;;;;;;;20.22;64.46;99089.09;7287761;19;153813;-50
2021/10/30 08:29:28;;;;;;;;;;;;;;;20.20;64.87;99097.06;7288128;19;152486;-50
2021/10/30 08:31:55;;;;;;;;;;;;;;;20.19;64.45;99090.63;7285596;19;153592;-50
2021/10/30 08:34:22;;;;;;;;;;;;;;;20.19;64.45;99095.41;7286476;19;153960;-50
2021/10/30 08:36:49;;;;;;;;;;;;;;;20.18;64.47;99111.41;7295441;19;151818;-51
2021/10/30 08:39:16;;;;;;;;;;;;;;;20.14;64.84;99124.50;7287833;19;153290;-50
2021/10/30 08:41:43;;;;;;;;;;;;;;;20.13;64.94;99131.28;7286587;19;152024;-51
2021/10/30 08:44:10;;;;;;;;;;;;;;;20.15;64.42;99136.56;7286083;19;152603;-50
2021/10/30 08:46:37;;;;;;;;;;;;;;;20.16;64.95;99132.59;7286366;19;153313;-53
2021/10/30 08:49:05;;;;;;;;;;;;;;;19.79;59.68;99135.34;7286256;19;151744;-52
2021/10/30 08:51:33;;;;;;;;;;;;;;;19.67;60.26;99134.50;7286554;19;153149;-51
2021/10/30 08:54:00;;;;;;;;;;;;;;;19.72;61.81;99131.47;7284965;19;152356;-51
2021/10/30 08:56:27;;;;;;;;;;;;;;;19.76;61.93;99138.03;7287754;19;151742;-52
2021/10/30 08:58:54;;;;;;;;;;;;;;;19.76;62.57;99138.03;7291639;19;152545;-51
2021/10/30 09:01:22;;;;;;;;;;;;;;;19.85;62.47;99136.75;7281999;19;151797;-52
2021/10/30 09:03:52;;;;;;;;;;;;;;;19.88;62.20;99138.03;7287741;19;152595;-52
2021/10/30 09:06:31;;;;;;;;;;;;;;;19.98;61.68;99146.00;7285208;19;154160;-52
2021/10/30 09:09:00;;;;;;;;;;;;;;;20.01;61.85;99142.50;7287273;19;152045;-53
2021/10/30 09:11:27;;;;;;;;;;;;;;;20.05;61.79;99139.81;7286225;19;153835;-51
2021/10/30 09:13:55;;;;;;;;;;;;;;;20.11;61.65;99141.22;7284476;19;153650;-52
2021/10/30 09:16:22;;;;;;;;;;;;;;;20.15;61.47;99147.75;7287017;19;151872;-52
2021/10/30 09:18:49;;;;;;;;;;;;;;;20.20;61.26;99153.16;7285331;19;153361;-52
2021/10/30 09:21:17;;;;;;;;;;;;;;;20.25;61.43;99148.13;7293391;19;154469;-52
2021/10/30 09:23:46;;;;;;;;;;;;;;;20.30;61.17;99159.16;7282521;19;153302;-52
2021/10/30 09:26:15;;;;;;;;;;;;;;;20.35;61.19;99164.50;7285453;19;152600;-52
2021/10/30 09:28:48;;;;;;;;;;;;;;;20.42;60.91;99161.13;7285106;19;153479;-52
2021/10/30 09:31:15;;;;;;;;;;;;;;;20.48;60.66;99176.56;7284720;19;152630;-52
2021/10/30 09:33:47;;;;;;;;;;;;;;;20.57;60.66;99166.03;7283409;19;153498;-52
2021/10/30 09:36:15;;;;;;;;;;;;;;;20.65;60.37;99158.66;7285673;19;152445;-52
2021/10/30 09:38:43;;;;;;;;;;;;;;;20.71;60.48;99177.72;7285030;19;152038;-52
2021/10/30 09:41:13;;;;;;;;;;;;;;;20.76;60.45;99176.63;7282444;19;154048;-52
2021/10/30 09:43:49;;;;;;;;;;;;;;;20.82;60.37;99181.66;7290212;19;151884;-52
2021/10/30 09:46:16;;;;;;;;;;;;;;;20.90;59.82;99174.25;7280555;19;154202;-52
2021/10/30 09:48:43;;;;;;;;;;;;;;;20.96;60.05;99169.22;7284879;19;151585;-52
2021/10/30 09:51:25;;;;;;;;;;;;;;;21.00;59.41;99176.59;7285183;19;152678;-52
2021/10/30 09:53:53;;;;;;;;;;;;;;;21.08;59.12;99174.81;7285371;19;153560;-52
2021/10/30 09:56:20;;;;;;;;;;;;;;;21.15;59.18;99172.25;7284233;19;151629;-52
2021/10/30 09:58:47;;;;;;;;;;;;;;;21.21;59.11;99179.28;7283713;19;152886;-52
2021/10/30 10:01:16;;;;;;;;;;;;;;;21.27;58.81;99177.81;7281936;19;154327;-52
2021/10/30 10:03:44;;;;;;;;;;;;;;;21.32;58.75;99188.00;7283258;19;151803;-52
2021/10/30 10:06:14;;;;;;;;;;;;;;;21.37;58.40;99187.75;7289401;19;152633;-52
2021/10/30 10:08:42;;;;;;;;;;;;;;;21.41;58.17;99189.47;7286132;19;151702;-51
2021/10/30 10:11:10;;;;;;;;;;;;;;;21.45;58.41;99186.75;7285576;19;153000;-52
2021/10/30 10:13:37;;;;;;;;;;;;;;;21.48;57.96;99186.88;7282669;19;153979;-52
2021/10/30 10:16:05;;;;;;;;;;;;;;;21.49;58.39;99196.94;7280772;19;152382;-52
2021/10/30 10:18:35;;;;;;;;;;;;;;;21.52;57.71;99189.78;7284058;19;153654;-52
2021/10/30 10:21:02;;;;;;;;;;;;;;;21.53;57.85;99197.84;7281906;19;153988;-52
2021/10/30 10:23:30;;;;;;;;;;;;;;;21.58;57.79;99208.84;7281131;19;152016;-52
2021/10/30 10:25:58;;;;;;;;;;;;;;;21.60;57.44;99200.06;7284296;19;152316;-52
2021/10/30 10:28:26;;;;;;;;;;;;;;;21.61;57.54;99202.53;7291647;19;151495;-52
2021/10/30 10:30:54;;;;;;;;;;;;;;;21.64;57.26;99204.59;7282823;19;153186;-52
2021/10/30 10:33:21;;;;;;;;;;;;;;;21.66;57.17;99199.47;7279577;19;154176;-52
2021/10/30 10:35:51;;;;;;;;;;;;;;;21.68;57.36;99199.91;7285776;19;151564;-52
2021/10/30 10:38:17;;;;;;;;;;;;;;;21.69;57.18;99215.59;7283442;19;153540;-52
2021/10/30 10:40:44;;;;;;;;;;;;;;;21.72;57.04;99214.03;7283908;19;153386;-52
2021/10/30 10:43:31;;;;;;;;;;;;;;;21.73;56.83;99218.50;7281078;19;152129;-52
2021/10/30 10:45:58;;;;;;;;;;;;;;;21.70;57.15;99214.44;7282492;19;153148;-52
2021/10/30 10:48:39;;;;;;;;;;;;;;;21.71;56.82;99229.31;7289228;19;154099;-52
2021/10/30 10:51:19;;;;;;;;;;;;;;;21.69;56.88;99226.84;7281726;19;152804;-52
2021/10/30 10:53:56;;;;;;;;;;;;;;;21.71;56.67;99240.53;7282499;19;154195;-52
2021/10/30 10:56:23;;;;;;;;;;;;;;;21.69;56.56;99248.50;7283807;19;151653;-52
2021/10/30 10:58:53;;;;;;;;;;;;;;;21.68;57.48;99250.50;7284390;19;152103;-51
2021/10/30 11:01:20;;;;;;;;;;;;;;;21.67;57.55;99250.84;7280303;19;153473;-52
2021/10/30 11:03:47;;;;;;;;;;;;;;;21.76;56.82;99250.72;7281767;19;151750;-51
2021/10/30 11:06:14;;;;;;;;;;;;;;;21.72;56.67;99265.47;7283944;19;151948;-52
2021/10/30 11:08:44;;;;;;;;;;;;;;;21.65;57.01;99259.66;7281307;19;153342;-52
2021/10/30 11:11:12;;;;;;;;;;;;;;;21.65;57.25;99261.63;7289969;19;152216;-51
2021/10/30 11:13:42;;;;;;;;;;;;;;;21.63;57.39;99263.97;7279740;19;154241;-52
2021/10/30 11:16:10;;;;;;;;;;;;;;;21.60;57.13;99268.34;7280518;19;152244;-52
2021/10/30 11:21:24;;;;;;;;;;;;;;;21.55;57.51;99260.16;7281561;19;152846;-51
2021/10/30 11:23:52;;;;;;;;;;;;;;;21.53;57.04;99256.84;7279042;19;151823;-51
2021/10/30 11:26:22;;;;;;;;;;;;;;;21.54;56.93;99261.31;7281223;19;153047;-51
2021/10/30 11:28:49;;;;;;;;;;;;;;;21.52;56.92;99269.31;7281318;19;153458;-51
2021/10/30 11:31:17;;;;;;;;;;;;;;;21.52;57.02;99265.66;7281840;19;151727;-51
2021/10/30 11:33:45;;;;;;;;;;;;;;;21.51;56.70;99276.09;7290505;19;152334;-51
2021/10/30 11:36:14;;;;;;;;;;;;;;;21.49;56.92;99277.59;7282730;19;152241;-50
2021/10/30 11:38:44;;;;;;;;;;;;;;;21.48;56.29;99278.81;7281062;19;151926;-50
2021/10/30 11:41:14;;;;;;;;;;;;;;;21.47;56.58;99274.34;7281681;19;153915;-51
2021/10/30 11:43:42;;;;;;;;;;;;;;;21.47;56.17;99289.22;7278485;19;152165;-51
2021/10/30 11:46:11;;;;;;;;;;;;;;;21.46;56.03;99290.38;7282808;19;153189;-50
2021/10/30 11:48:40;;;;;;;;;;;;;;;21.49;55.87;99291.66;7279950;19;153406;-51
2021/10/30 11:51:09;;;;;;;;;;;;;;;21.47;55.74;99291.22;7280059;19;152576;-51
2021/10/30 11:53:38;;;;;;;;;;;;;;;21.45;55.34;99296.34;7281940;19;153939;-51
2021/10/30 11:56:09;;;;;;;;;;;;;;;21.47;55.33;99303.28;7289489;19;153314;-51
2021/10/30 11:58:50;;;;;;;;;;;;;;;21.47;54.97;99306.06;7281120;19;152845;-51
2021/10/30 12:01:19;;;;;;;;;;;;;;;21.45;55.22;99305.59;7276601;19;153977;-51
2021/10/30 12:03:46;;;;;;;;;;;;;;;21.38;53.98;99301.75;7279742;19;151894;-51
2021/10/30 12:06:35;;;;;;;;;;;;;;;21.38;54.15;99327.88;7280712;19;153843;-50
2021/10/30 12:09:02;;;;;;;;;;;;;;;21.39;54.44;99306.22;7282186;19;153636;-51
2021/10/30 12:11:34;;;;;;;;;;;;;;;21.42;53.91;99311.13;7288777;19;152023;-51
2021/10/30 12:14:01;;;;;;;;;;;;;;;21.41;54.05;99315.91;7289778;19;152755;-51
2021/10/30 12:16:29;;;;;;;;;;;;;;;21.44;53.65;99326.44;7287468;19;153782;-51
2021/10/30 12:19:00;;;;;;;;;;;;;;;21.32;53.73;99326.47;7296610;19;152129;-50
2021/10/30 12:21:30;;;;;;;;;;;;;;;21.32;52.64;99329.28;7288106;19;154060;-51
2021/10/30 12:23:58;;;;;;;;;;;;;;;21.34;53.33;99329.75;7286951;19;151772;-51
2021/10/30 12:26:26;;;;;;;;;;;;;;;21.33;53.21;99330.91;7288564;19;153293;-51
2021/10/30 12:28:53;;;;;;;;;;;;;;;21.33;52.74;99332.91;7285310;19;154090;-51
2021/10/30 12:31:23;;;;;;;;;;;;;;;21.32;53.01;99342.50;7288215;19;151735;-50
2021/10/30 12:33:52;;;;;;;;;;;;;;;21.27;53.09;99347.19;7284604;19;153433;-51
2021/10/30 12:36:19;;;;;;;;;;;;;;;21.29;52.93;99355.28;7287164;19;153801;-51
2021/10/30 12:38:52;;;;;;;;;;;;;;;21.26;52.74;99356.78;7295589;19;151931;-50
2021/10/30 12:41:28;;;;;;;;;;;;;;;21.23;52.75;99360.31;7285574;19;153307;-51
2021/10/30 12:43:57;;;;;;;;;;;;;;;21.26;52.68;99364.38;7283627;19;152000;-50
2021/10/30 12:46:24;;;;;;;;;;;;;;;21.22;52.61;99369.06;7286370;19;152834;-51
2021/10/30 12:48:54;;;;;;;;;;;;;;;21.22;52.18;99355.03;7285374;19;154310;-51